Archival Weather

Republic

Farmingdale, New York (KFRG)

Report from: Sunday, January 28, 2024 12:08 AM EST
Current time: Friday, June 21, 2024 8:33 PM EDT

Current weather – Weather history – Daily summaries
Weather forecast

Temperature5.0°C (41.0°F)
Wind chill3.9°C (39.0°F)
Dew point2.8°C (37.0°F)
Winds 3 kts (1.5 m/s, 3.5 mph) East-Northeast (70°)
Visibility10 mi. (16.1 km)
Clouds Scattered clouds 2,500 ft. (762 m)
Ceiling: Broken clouds 12,000 ft. (3,658 m)
Altimeter30.16 in.Hg (1021 mB)
Relative humidity86 %
Density altitude-1,373 ft. (-418 m)
Remarks Fully automated report
Automated weather observing station without precipitation discriminator
Flight conditions Visual Meteorological Conditions
Raw dataKFRG 280508Z AUTO 07003KT 10SM SCT025 BKN120 05/03 A3016 RMK AO1 T00500028
An error has occurred. This application may no longer respond until reloaded. Reload 🗙